Time;durP1;ratioP1;P1;durP2;ratioP2;P2;SDS_P1;SDS_P2;PMS_P1;PMS_P2;Temp;Humidity;BMP_temperature;BMP_pressure;BME280_temperature;BME280_humidity;BME280_pressure;Samples;Min_cycle;Max_cycle;Signal;HPM_P1;HPM_P2
2023/05/26 00:02:48;;;;;;;10.50;5.65;;;16.70;94.00;;;;;;6249865;28;20052;-76
2023/05/26 00:05:49;;;;;;;9.30;5.80;;;16.60;93.90;;;;;;6249195;28;20071;-75
2023/05/26 00:08:51;;;;;;;9.25;5.88;;;16.50;94.20;;;;;;6231820;28;20055;-76
2023/05/26 00:11:53;;;;;;;10.18;5.82;;;16.40;94.30;;;;;;6249281;28;20238;-77
2023/05/26 00:14:56;;;;;;;9.20;5.90;;;16.40;94.40;;;;;;6249348;28;20412;-75
2023/05/26 00:18:01;;;;;;;10.13;6.07;;;16.40;94.40;;;;;;6249417;28;20237;-76
2023/05/26 00:21:03;;;;;;;9.52;5.97;;;16.30;94.40;;;;;;6249204;28;20183;-76
2023/05/26 00:24:07;;;;;;;11.48;6.38;;;16.20;94.40;;;;;;6249290;28;20046;-74
2023/05/26 00:27:08;;;;;;;8.77;5.90;;;16.10;94.60;;;;;;6249095;28;20399;-75
2023/05/26 00:30:13;;;;;;;10.68;6.20;;;16.00;94.80;;;;;;6248960;28;20049;-74
2023/05/26 00:33:15;;;;;;;11.25;5.60;;;15.90;95.20;;;;;;6248860;28;20045;-76
2023/05/26 00:36:17;;;;;;;12.05;6.82;;;15.90;95.40;;;;;;6249085;28;20052;-74
2023/05/26 00:39:18;;;;;;;8.63;5.90;;;15.90;95.70;;;;;;6249124;28;20049;-76
2023/05/26 00:42:20;;;;;;;10.00;5.97;;;15.90;95.70;;;;;;6248755;28;20046;-76
2023/05/26 00:45:23;;;;;;;10.88;6.15;;;15.90;95.70;;;;;;6248632;28;20490;-74
2023/05/26 00:48:25;;;;;;;12.57;6.32;;;15.80;95.70;;;;;;6248690;28;20041;-75
2023/05/26 00:51:27;;;;;;;8.20;5.97;;;15.80;95.80;;;;;;6248367;28;20411;-75
2023/05/26 00:54:29;;;;;;;10.10;5.95;;;15.80;95.90;;;;;;6248487;28;20053;-75
2023/05/26 00:57:33;;;;;;;9.02;5.70;;;15.90;95.80;;;;;;6248511;28;20129;-74
2023/05/26 01:00:37;;;;;;;11.13;5.72;;;15.80;96.00;;;;;;6248617;28;20140;-75
2023/05/26 01:03:39;;;;;;;10.77;6.28;;;15.80;96.00;;;;;;6248182;28;20049;-75
2023/05/26 01:06:44;;;;;;;9.30;6.10;;;15.80;96.10;;;;;;6248189;28;20411;-76
2023/05/26 01:09:46;;;;;;;9.32;5.93;;;15.70;96.20;;;;;;6248160;28;20538;-76
2023/05/26 01:12:55;;;;;;;9.40;6.03;;;15.80;96.40;;;;;;6247994;28;20407;-76
2023/05/26 01:16:05;;;;;;;10.05;5.80;;;15.80;96.50;;;;;;6248086;28;20042;-75
2023/05/26 01:19:52;;;;;;;9.10;6.40;;;15.80;96.70;;;;;;6247571;28;20054;-75
2023/05/26 01:23:39;;;;;;;10.30;6.10;;;15.70;96.90;;;;;;6247531;28;20115;-75
2023/05/26 01:26:55;;;;;;;8.77;5.90;;;15.70;97.20;;;;;;6247746;28;20049;-76
2023/05/26 01:29:59;;;;;;;10.13;5.90;;;15.70;97.10;;;;;;6248699;28;20415;-75
2023/05/26 01:33:01;;;;;;;11.20;6.28;;;15.70;97.10;;;;;;6249077;28;20049;-75
2023/05/26 01:36:03;;;;;;;8.57;5.85;;;15.80;97.50;;;;;;6248267;28;20045;-76
2023/05/26 01:39:07;;;;;;;10.60;5.95;;;15.70;97.30;;;;;;6247695;28;20049;-76
2023/05/26 01:42:24;;;;;;;8.93;5.80;;;15.70;97.30;;;;;;6247521;28;20604;-76
2023/05/26 01:45:32;;;;;;;9.82;6.30;;;15.60;97.50;;;;;;6247341;28;20104;-75
2023/05/26 01:48:36;;;;;;;9.88;5.68;;;15.60;97.40;;;;;;6247350;28;20400;-74
2023/05/26 01:51:43;;;;;;;10.00;5.95;;;15.60;97.50;;;;;;6247320;28;20076;-76
2023/05/26 01:54:49;;;;;;;11.50;6.32;;;15.60;97.40;;;;;;6247566;28;20057;-75
2023/05/26 01:57:51;;;;;;;10.20;6.05;;;15.60;97.50;;;;;;6247199;28;20057;-75
2023/05/26 02:00:54;;;;;;;8.60;5.85;;;15.50;97.50;;;;;;6247474;28;20046;-74
2023/05/26 02:03:56;;;;;;;9.52;6.03;;;15.50;97.80;;;;;;6247360;28;20053;-76
2023/05/26 02:07:02;;;;;;;10.25;6.30;;;15.50;97.80;;;;;;6229791;28;20052;-75
2023/05/26 02:10:05;;;;;;;9.88;5.97;;;14.80;99.10;;;;;;6247082;28;20049;-76
2023/05/26 02:13:07;;;;;;;8.50;5.57;;;15.00;99.30;;;;;;6247416;28;20050;-75
2023/05/26 02:16:11;;;;;;;11.43;6.30;;;15.20;99.00;;;;;;6247254;28;20049;-77
2023/05/26 02:19:13;;;;;;;8.27;5.43;;;15.40;98.80;;;;;;6256274;28;20049;-75
2023/05/26 02:22:15;;;;;;;11.13;6.40;;;15.40;98.80;;;;;;6258453;28;20057;-74
2023/05/26 02:25:19;;;;;;;9.63;5.60;;;15.40;98.70;;;;;;6257587;28;20077;-74
2023/05/26 02:28:21;;;;;;;11.10;6.55;;;15.40;98.90;;;;;;6255435;28;20042;-73
2023/05/26 02:31:25;;;;;;;8.43;5.65;;;15.40;98.80;;;;;;6251181;28;20089;-74
2023/05/26 02:34:27;;;;;;;8.75;5.50;;;15.40;98.90;;;;;;6251929;28;20041;-76
2023/05/26 02:37:28;;;;;;;8.68;5.57;;;15.40;99.00;;;;;;6262434;28;20052;-76
2023/05/26 02:40:30;;;;;;;10.10;6.30;;;15.40;99.00;;;;;;6274607;28;20068;-76
2023/05/26 02:43:32;;;;;;;11.07;5.97;;;15.40;98.90;;;;;;6273381;28;20045;-75
2023/05/26 02:46:35;;;;;;;10.48;6.00;;;15.40;99.00;;;;;;6264584;28;20045;-74
2023/05/26 02:49:37;;;;;;;11.13;6.10;;;15.40;99.10;;;;;;6252253;28;20046;-76
2023/05/26 02:52:39;;;;;;;9.02;6.07;;;15.30;99.10;;;;;;6252373;28;20056;-73
2023/05/26 02:55:41;;;;;;;10.18;6.28;;;15.30;99.20;;;;;;6252026;28;20398;-75
2023/05/26 02:58:43;;;;;;;8.55;6.30;;;15.30;99.30;;;;;;6251733;28;20060;-75
2023/05/26 03:01:46;;;;;;;9.90;6.45;;;15.30;99.50;;;;;;6251924;28;20052;-76
2023/05/26 03:04:48;;;;;;;11.27;6.60;;;15.30;99.50;;;;;;6251528;28;20376;-75
2023/05/26 03:07:50;;;;;;;10.82;6.03;;;15.30;99.60;;;;;;6251604;28;20041;-74
2023/05/26 03:10:52;;;;;;;9.88;5.93;;;15.30;99.60;;;;;;6251615;28;20045;-75
2023/05/26 03:13:54;;;;;;;8.98;6.03;;;15.20;99.60;;;;;;6251401;28;20053;-75
2023/05/26 03:16:57;;;;;;;8.90;6.07;;;15.20;99.80;;;;;;6251625;28;20061;-75
2023/05/26 03:19:59;;;;;;;9.65;6.43;;;15.20;99.90;;;;;;6251920;28;20049;-74
2023/05/26 03:23:00;;;;;;;10.45;6.57;;;15.20;99.90;;;;;;6251049;28;20119;-74
2023/05/26 03:26:02;;;;;;;10.15;6.75;;;15.20;99.90;;;;;;6251438;28;20049;-75
2023/05/26 03:29:04;;;;;;;9.60;6.32;;;15.20;99.90;;;;;;6268849;28;20147;-75
2023/05/26 03:32:07;;;;;;;9.48;6.38;;;15.20;99.90;;;;;;6267145;28;20057;-77
2023/05/26 03:35:10;;;;;;;8.77;5.88;;;15.10;99.90;;;;;;6263584;28;20049;-75
2023/05/26 03:38:12;;;;;;;10.65;6.40;;;15.10;99.90;;;;;;6273764;28;20430;-76
2023/05/26 03:41:14;;;;;;;9.00;6.47;;;15.10;99.90;;;;;;6262914;28;20384;-75
2023/05/26 03:44:18;;;;;;;9.48;6.60;;;15.10;99.90;;;;;;6273276;28;20064;-77
2023/05/26 03:47:22;;;;;;;12.88;7.60;;;15.10;99.90;;;;;;6263935;28;20572;-76
2023/05/26 03:50:23;;;;;;;14.43;6.40;;;15.00;99.90;;;;;;6266085;28;20042;-74
2023/05/26 03:53:25;;;;;;;12.32;6.78;;;15.00;99.90;;;;;;6264355;28;20064;-76
2023/05/26 03:56:27;;;;;;;12.05;6.70;;;15.00;99.90;;;;;;6255558;28;20042;-74
2023/05/26 03:59:30;;;;;;;10.55;6.90;;;14.90;99.90;;;;;;6255908;28;20049;-75
2023/05/26 04:02:33;;;;;;;10.60;6.57;;;14.80;99.90;;;;;;6255323;28;20049;-75
2023/05/26 04:05:35;;;;;;;10.88;6.63;;;14.70;99.90;;;;;;6253312;28;20042;-75
2023/05/26 04:08:37;;;;;;;11.07;6.70;;;14.70;99.90;;;;;;6249742;28;20060;-75
2023/05/26 04:11:39;;;;;;;11.05;6.43;;;14.70;99.90;;;;;;6249650;28;20046;-75
2023/05/26 04:14:41;;;;;;;11.50;6.60;;;14.70;99.90;;;;;;6250400;28;20415;-76
2023/05/26 04:17:44;;;;;;;10.82;7.10;;;14.70;99.90;;;;;;6265347;28;20125;-75
2023/05/26 04:20:47;;;;;;;12.38;6.85;;;14.80;99.90;;;;;;6264016;28;20058;-75
2023/05/26 04:23:51;;;;;;;10.20;6.97;;;14.80;99.90;;;;;;6243967;28;20068;-76
2023/05/26 04:26:54;;;;;;;11.75;6.28;;;14.80;99.90;;;;;;6243033;28;20053;-75
2023/05/26 04:29:58;;;;;;;10.83;7.07;;;14.80;99.90;;;;;;6243431;28;20073;-76
2023/05/26 04:33:03;;;;;;;11.60;6.88;;;14.80;99.90;;;;;;6236622;28;20050;-78
2023/05/26 04:36:08;;;;;;;12.70;6.43;;;14.70;99.90;;;;;;6225293;28;20588;-75
2023/05/26 04:39:10;;;;;;;12.48;7.80;;;14.80;99.90;;;;;;6224909;28;20480;-75
2023/05/26 04:42:12;;;;;;;12.75;7.50;;;14.80;99.90;;;;;;6224755;28;20045;-74
2023/05/26 04:45:14;;;;;;;11.23;7.43;;;14.80;99.90;;;;;;6225041;28;20056;-75
2023/05/26 04:48:17;;;;;;;13.25;7.43;;;14.90;99.90;;;;;;6224743;28;20046;-75
2023/05/26 04:51:20;;;;;;;11.35;7.25;;;14.90;99.90;;;;;;6224823;28;20129;-75
2023/05/26 04:54:22;;;;;;;12.07;7.50;;;14.90;99.90;;;;;;6223786;28;20068;-75
2023/05/26 04:57:24;;;;;;;13.90;7.85;;;14.90;99.90;;;;;;6224274;28;20050;-74
2023/05/26 05:00:26;;;;;;;12.93;7.50;;;14.90;99.90;;;;;;6224573;28;20053;-75
2023/05/26 05:03:31;;;;;;;11.63;7.68;;;14.90;99.90;;;;;;6224272;28;20050;-76
2023/05/26 05:06:33;;;;;;;14.32;8.20;;;14.90;99.90;;;;;;6224281;28;20484;-74
2023/05/26 05:09:35;;;;;;;12.95;7.85;;;14.90;99.90;;;;;;6223841;28;20054;-75
2023/05/26 05:12:37;;;;;;;11.77;7.70;;;14.90;99.90;;;;;;6224192;28;20054;-77
2023/05/26 05:15:39;;;;;;;14.77;8.00;;;14.90;99.90;;;;;;6223907;28;20046;-76
2023/05/26 05:18:42;;;;;;;14.73;8.52;;;15.00;99.90;;;;;;6224376;28;20059;-76
2023/05/26 05:21:44;;;;;;;;;;;15.00;99.90;;;;;;6235547;28;20064;-75
2023/05/26 05:24:46;;;;;;;13.70;8.18;;;15.00;99.90;;;;;;6249505;28;20044;-76
2023/05/26 05:27:48;;;;;;;12.95;7.45;;;15.10;99.90;;;;;;6249142;28;20391;-74
2023/05/26 05:30:50;;;;;;;13.27;8.10;;;15.20;99.90;;;;;;6248734;28;20046;-75
2023/05/26 05:33:53;;;;;;;10.82;7.28;;;15.10;99.70;;;;;;6257824;28;20061;-75
2023/05/26 05:36:55;;;;;;;14.52;8.40;;;15.10;99.60;;;;;;6248139;28;20045;-74
2023/05/26 05:39:57;;;;;;;12.23;7.70;;;15.20;99.60;;;;;;6247413;28;20510;-75
2023/05/26 05:43:00;;;;;;;14.77;8.52;;;15.20;99.50;;;;;;6249714;28;20050;-75
2023/05/26 05:46:02;;;;;;;17.42;9.30;;;15.20;99.50;;;;;;6261932;28;20107;-77
2023/05/26 05:49:05;;;;;;;16.30;8.60;;;15.30;99.10;;;;;;6261823;28;20052;-76
2023/05/26 05:52:07;;;;;;;14.77;8.45;;;15.30;98.60;;;;;;6256196;28;20080;-77
2023/05/26 05:55:13;;;;;;;14.35;7.88;;;15.40;97.90;;;;;;6251220;28;20052;-74
2023/05/26 05:58:15;;;;;;;14.93;9.10;;;15.50;97.40;;;;;;6248928;28;20046;-75
2023/05/26 06:01:17;;;;;;;16.50;8.65;;;15.40;97.70;;;;;;6247871;28;20057;-75
2023/05/26 06:04:20;;;;;;;18.75;8.63;;;15.50;96.50;;;;;;6248826;28;20050;-72
2023/05/26 06:07:22;;;;;;;15.18;8.45;;;15.60;96.10;;;;;;6253058;28;20045;-74
2023/05/26 06:10:24;;;;;;;16.27;7.85;;;15.60;96.40;;;;;;6253411;28;20052;-75
2023/05/26 06:13:26;;;;;;;13.95;8.68;;;15.60;96.10;;;;;;6252679;28;20057;-75
2023/05/26 06:16:28;;;;;;;14.27;8.43;;;15.70;96.10;;;;;;6252744;28;20049;-74
2023/05/26 06:19:31;;;;;;;14.80;8.65;;;15.60;96.40;;;;;;6253100;28;20046;-74
2023/05/26 06:22:36;;;;;;;;;;;15.70;96.20;;;;;;6252833;28;20053;-74
2023/05/26 06:25:38;;;;;;;15.38;8.75;;;15.80;96.50;;;;;;6252437;28;19931;-74
2023/05/26 06:28:39;;;;;;;15.70;8.98;;;15.80;96.40;;;;;;6252365;28;20049;-74
2023/05/26 06:31:41;;;;;;;16.23;8.20;;;15.80;96.40;;;;;;6252441;28;20045;-74
2023/05/26 06:34:44;;;;;;;13.85;8.82;;;15.90;96.40;;;;;;6252428;28;20050;-76
2023/05/26 06:37:46;;;;;;;16.20;8.55;;;15.90;96.20;;;;;;6251941;28;20056;-76
2023/05/26 06:40:48;;;;;;;15.80;8.80;;;16.00;96.00;;;;;;6252171;28;20056;-75
2023/05/26 06:43:50;;;;;;;14.13;8.65;;;15.70;95.80;;;;;;6252028;28;20128;-75
2023/05/26 06:46:52;;;;;;;14.75;8.55;;;15.90;96.30;;;;;;6252050;28;20407;-74
2023/05/26 06:49:55;;;;;;;13.50;8.55;;;15.80;96.20;;;;;;6252110;28;20049;-74
2023/05/26 06:52:57;;;;;;;15.88;8.77;;;15.90;95.50;;;;;;6252107;28;20053;-74
2023/05/26 06:56:00;;;;;;;19.27;9.05;;;16.00;96.00;;;;;;6251959;28;20045;-75
2023/05/26 06:59:01;;;;;;;14.63;9.23;;;16.00;96.00;;;;;;6251672;28;20056;-74
2023/05/26 07:02:04;;;;;;;15.13;8.75;;;16.10;95.20;;;;;;6237285;28;20049;-74
2023/05/26 07:05:08;;;;;;;15.73;8.02;;;16.10;95.20;;;;;;6252163;28;20064;-75
2023/05/26 07:08:10;;;;;;;15.70;9.23;;;16.20;95.20;;;;;;6251737;28;20050;-74
2023/05/26 07:11:12;;;;;;;17.30;8.98;;;16.00;95.30;;;;;;6251697;28;20057;-76
2023/05/26 07:14:14;;;;;;;14.98;9.23;;;16.20;95.40;;;;;;6251103;28;20045;-76
2023/05/26 07:17:16;;;;;;;17.92;9.55;;;16.10;94.90;;;;;;6250428;28;20042;-75
2023/05/26 07:20:19;;;;;;;15.88;9.00;;;16.20;95.00;;;;;;6251503;28;20131;-75
2023/05/26 07:23:21;;;;;;;14.23;8.85;;;16.40;95.00;;;;;;6251274;28;20438;-74
2023/05/26 07:26:22;;;;;;;16.55;8.98;;;16.50;94.80;;;;;;6251397;28;20049;-75
2023/05/26 07:29:24;;;;;;;16.65;9.88;;;16.50;94.40;;;;;;6251163;28;20052;-76
2023/05/26 07:32:26;;;;;;;14.50;8.88;;;16.70;94.20;;;;;;6250932;28;20045;-76
2023/05/26 07:35:29;;;;;;;15.85;8.55;;;16.80;94.40;;;;;;6250693;28;20495;-75
2023/05/26 07:38:31;;;;;;;17.33;9.30;;;16.80;94.40;;;;;;6251100;28;20045;-75
2023/05/26 07:41:35;;;;;;;16.77;8.57;;;16.80;94.70;;;;;;6250787;28;20053;-76
2023/05/26 07:44:37;;;;;;;17.23;8.50;;;16.90;94.60;;;;;;6250984;28;20052;-75
2023/05/26 07:47:40;;;;;;;15.98;9.10;;;17.00;94.60;;;;;;6250828;28;20057;-74
2023/05/26 07:50:43;;;;;;;18.23;9.88;;;17.00;94.20;;;;;;6250798;28;20049;-74
2023/05/26 07:53:45;;;;;;;17.88;10.05;;;17.10;94.20;;;;;;6250506;28;20068;-74
2023/05/26 07:56:47;;;;;;;18.15;10.13;;;16.90;93.70;;;;;;6250911;28;20053;-76
2023/05/26 07:59:49;;;;;;;15.10;8.75;;;17.00;93.30;;;;;;6250672;28;20053;-75
2023/05/26 08:02:51;;;;;;;16.17;8.65;;;17.00;94.00;;;;;;6250668;28;20049;-76
2023/05/26 08:05:54;;;;;;;14.77;8.48;;;17.10;93.30;;;;;;6250277;28;20418;-75
2023/05/26 08:08:56;;;;;;;15.90;7.97;;;17.20;93.20;;;;;;6252522;28;20432;-74
2023/05/26 08:11:58;;;;;;;15.73;8.05;;;17.30;93.00;;;;;;6250737;28;20051;-74
2023/05/26 08:15:00;;;;;;;15.00;8.15;;;17.20;93.20;;;;;;6250024;28;20064;-73
2023/05/26 08:18:02;;;;;;;16.25;8.15;;;17.40;93.20;;;;;;6249952;28;20475;-74
2023/05/26 08:21:05;;;;;;;18.63;8.30;;;17.40;93.30;;;;;;6249747;28;20183;-75
2023/05/26 08:24:07;;;;;;;16.80;8.60;;;17.50;93.20;;;;;;6250627;28;20049;-74
2023/05/26 08:27:09;;;;;;;15.00;8.10;;;17.60;92.90;;;;;;6249523;28;20057;-73
2023/05/26 08:30:12;;;;;;;12.88;7.97;;;17.60;93.20;;;;;;6249793;28;20049;-74
2023/05/26 08:33:13;;;;;;;12.18;8.30;;;17.70;92.90;;;;;;6232239;28;20045;-76
2023/05/26 08:36:16;;;;;;;15.80;7.97;;;17.80;92.00;;;;;;6249732;28;20068;-74
2023/05/26 08:39:18;;;;;;;15.52;8.35;;;17.80;92.30;;;;;;6249397;28;20052;-74
2023/05/26 08:42:23;;;;;;;17.27;9.45;;;17.90;92.20;;;;;;6249395;28;20053;-74
2023/05/26 08:45:25;;;;;;;18.05;8.48;;;17.90;92.60;;;;;;6249818;28;20045;-76
2023/05/26 08:48:27;;;;;;;14.68;7.90;;;17.90;92.10;;;;;;6249165;28;20053;-76
2023/05/26 08:51:36;;;;;;;13.98;7.75;;;18.10;93.00;;;;;;6249567;28;20052;-73
2023/05/26 08:54:38;;;;;;;13.32;7.75;;;18.00;92.10;;;;;;6254920;28;20050;-79
2023/05/26 08:57:42;;;;;;;13.95;7.40;;;18.10;91.80;;;;;;6261711;28;20404;-76
2023/05/26 09:00:46;;;;;;;13.50;7.47;;;18.10;91.30;;;;;;6264322;28;20068;-76
2023/05/26 09:03:48;;;;;;;16.88;8.25;;;18.20;91.20;;;;;;6264654;28;20411;-74
2023/05/26 09:06:51;;;;;;;14.07;7.70;;;18.20;91.40;;;;;;6262805;28;20056;-73
2023/05/26 09:09:53;;;;;;;15.93;8.02;;;18.20;91.30;;;;;;6264732;28;20140;-76
2023/05/26 09:13:06;;;;;;;14.98;7.13;;;18.20;92.10;;;;;;6261042;28;20041;-76
2023/05/26 09:16:13;;;;;;;15.25;7.45;;;18.30;91.70;;;;;;6248766;28;20218;-74
2023/05/26 09:19:17;;;;;;;14.00;8.18;;;18.50;91.30;;;;;;6248478;28;20057;-73
2023/05/26 09:22:22;;;;;;;15.80;8.65;;;18.60;91.10;;;;;;6248396;28;20150;-74
2023/05/26 09:25:25;;;;;;;13.82;7.45;;;18.60;90.70;;;;;;6248599;28;20060;-75
2023/05/26 09:28:27;;;;;;;13.00;7.13;;;18.60;91.30;;;;;;6248268;28;20068;-74
2023/05/26 09:31:39;;;;;;;16.75;7.45;;;18.70;89.20;;;;;;6248121;28;20057;-74
2023/05/26 09:34:41;;;;;;;11.53;7.27;;;18.70;89.60;;;;;;6248448;28;20050;-74
2023/05/26 09:37:44;;;;;;;12.20;7.45;;;18.80;89.40;;;;;;6248233;28;20304;-74
2023/05/26 09:40:48;;;;;;;12.30;7.38;;;18.90;90.30;;;;;;6247787;28;20050;-73
2023/05/26 09:43:51;;;;;;;11.75;6.45;;;19.00;89.80;;;;;;6248253;28;20061;-76
2023/05/26 09:46:53;;;;;;;14.25;7.20;;;19.00;90.20;;;;;;6250202;28;20398;-73
2023/05/26 09:50:03;;;;;;;12.70;6.82;;;19.10;90.30;;;;;;6248767;28;20053;-73
2023/05/26 09:53:09;;;;;;;12.43;6.90;;;19.20;89.10;;;;;;6248054;28;20045;-75
2023/05/26 09:56:11;;;;;;;11.88;7.05;;;19.30;89.60;;;;;;6249498;28;20053;-74
2023/05/26 09:59:16;;;;;;;11.93;6.63;;;19.30;90.30;;;;;;6247982;28;20053;-74
2023/05/26 10:02:21;;;;;;;13.43;7.53;;;19.40;90.00;;;;;;6248785;28;20045;-75
2023/05/26 10:05:23;;;;;;;16.02;7.35;;;19.40;89.80;;;;;;6247627;28;20041;-73
2023/05/26 10:08:30;;;;;;;12.07;7.88;;;19.40;88.80;;;;;;6247970;28;20494;-75
2023/05/26 10:11:40;;;;;;;12.55;7.35;;;19.50;87.60;;;;;;6250184;28;20411;-74
2023/05/26 10:14:43;;;;;;;11.82;6.82;;;19.60;87.80;;;;;;6249040;28;20407;-74
2023/05/26 10:17:45;;;;;;;15.05;6.97;;;19.60;89.20;;;;;;6259954;28;20045;-76
2023/05/26 10:20:50;;;;;;;14.43;6.72;;;19.70;89.30;;;;;;6271647;28;20477;-75
2023/05/26 10:24:06;;;;;;;12.60;7.30;;;19.80;88.50;;;;;;6270639;28;20494;-75
2023/05/26 10:27:17;;;;;;;17.13;7.75;;;19.80;87.70;;;;;;6269746;28;20048;-76
2023/05/26 10:30:21;;;;;;;12.52;7.13;;;19.90;87.30;;;;;;6253809;28;20049;-73
2023/05/26 10:33:39;;;;;;;13.50;6.90;;;19.90;88.60;;;;;;6248652;28;20065;-74
2023/05/26 10:36:42;;;;;;;15.77;8.85;;;20.10;88.70;;;;;;6248335;28;20042;-74
2023/05/26 10:39:45;;;;;;;16.67;8.52;;;20.20;88.60;;;;;;6248358;28;20057;-76
2023/05/26 10:42:49;;;;;;;17.75;8.93;;;20.30;88.00;;;;;;6248320;28;20555;-75
2023/05/26 10:45:57;;;;;;;13.52;6.72;;;20.30;88.00;;;;;;6247265;28;20439;-74
2023/05/26 10:49:00;;;;;;;12.30;6.47;;;20.40;86.00;;;;;;6247149;28;20510;-76
2023/05/26 10:52:11;;;;;;;15.45;6.95;;;20.40;84.70;;;;;;6250916;28;20068;-75
2023/05/26 10:55:29;;;;;;;13.32;6.45;;;20.50;84.70;;;;;;6251644;28;20049;-76
2023/05/26 10:58:36;;;;;;;12.85;6.93;;;20.60;86.10;;;;;;6251848;28;20056;-73
2023/05/26 11:01:38;;;;;;;10.55;6.15;;;20.60;85.80;;;;;;6252016;28;20042;-75
2023/05/26 11:04:42;;;;;;;12.82;6.40;;;20.70;85.80;;;;;;6251967;28;20045;-73
2023/05/26 11:07:44;;;;;;;12.48;6.00;;;20.70;85.90;;;;;;6251477;28;20050;-72
2023/05/26 11:11:04;;;;;;;12.65;6.28;;;20.80;84.70;;;;;;6251650;28;20049;-74
2023/05/26 11:14:09;;;;;;;13.10;6.88;;;20.90;84.50;;;;;;6251456;28;20045;-74
2023/05/26 11:17:14;;;;;;;9.77;6.13;;;20.90;82.70;;;;;;6251652;28;20053;-74
2023/05/26 11:20:17;;;;;;;12.45;6.10;;;21.00;84.90;;;;;;6251197;28;20480;-75
2023/05/26 11:23:20;;;;;;;13.48;7.00;;;21.10;84.90;;;;;;6251119;28;20064;-75
2023/05/26 11:26:26;;;;;;;10.75;5.82;;;21.10;82.90;;;;;;6251403;28;20064;-75
2023/05/26 11:29:28;;;;;;;11.93;6.28;;;21.10;83.30;;;;;;6251525;28;20492;-76
2023/05/26 11:32:35;;;;;;;12.70;6.47;;;21.20;82.80;;;;;;6252336;28;20492;-74
2023/05/26 11:35:37;;;;;;;10.27;6.05;;;21.20;82.60;;;;;;6257308;28;20400;-76
2023/05/26 11:38:40;;;;;;;12.88;6.25;;;21.40;84.70;;;;;;6262299;28;20058;-77
2023/05/26 11:41:45;;;;;;;12.25;6.70;;;21.60;83.90;;;;;;6263781;28;20067;-76
2023/05/26 11:44:46;;;;;;;14.30;7.00;;;21.60;83.50;;;;;;6258797;28;20136;-76
2023/05/26 11:47:50;;;;;;;11.20;6.25;;;21.70;83.00;;;;;;6251731;28;20128;-77
2023/05/26 11:50:54;;;;;;;13.48;6.65;;;21.90;82.60;;;;;;6250943;28;20051;-74
2023/05/26 11:53:58;;;;;;;12.77;6.65;;;21.90;80.00;;;;;;6250312;28;20050;-74
2023/05/26 11:57:01;;;;;;;11.98;6.60;;;21.90;82.00;;;;;;6259355;28;20060;-75
2023/05/26 12:00:09;;;;;;;12.68;6.47;;;22.00;81.70;;;;;;6259837;28;20056;-76
2023/05/26 12:03:19;;;;;;;11.43;6.78;;;22.10;81.00;;;;;;6255369;28;20621;-74
2023/05/26 12:06:23;;;;;;;10.45;6.00;;;22.20;78.70;;;;;;6250719;28;20050;-75
2023/05/26 12:09:25;;;;;;;14.48;5.85;;;22.30;81.20;;;;;;6250265;28;20041;-74
2023/05/26 12:12:28;;;;;;;10.07;5.75;;;22.50;80.40;;;;;;6249747;28;20045;-74
2023/05/26 12:15:30;;;;;;;11.10;6.00;;;22.50;80.10;;;;;;6249795;28;20053;-75
2023/05/26 12:18:32;;;;;;;14.65;6.10;;;22.70;79.20;;;;;;6249822;28;20053;-75
2023/05/26 12:21:41;;;;;;;10.65;6.10;;;22.70;80.30;;;;;;6250052;28;20053;-75
2023/05/26 12:24:45;;;;;;;10.20;6.60;;;22.80;80.80;;;;;;6250029;28;20045;-75
2023/05/26 12:27:49;;;;;;;12.73;5.85;;;23.00;79.60;;;;;;6249923;28;20053;-73
2023/05/26 12:30:55;;;;;;;12.95;6.20;;;23.00;78.60;;;;;;6250936;28;20049;-74
2023/05/26 12:33:57;;;;;;;10.43;5.35;;;23.20;77.20;;;;;;6250980;28;20411;-77
2023/05/26 12:36:59;;;;;;;14.20;8.20;;;23.20;76.90;;;;;;6250626;28;20045;-73
2023/05/26 12:40:01;;;;;;;10.90;5.75;;;23.30;76.20;;;;;;6249543;28;20049;-75
2023/05/26 12:43:05;;;;;;;10.05;5.88;;;23.20;77.00;;;;;;6249440;28;20071;-75
2023/05/26 12:46:07;;;;;;;10.55;5.60;;;23.10;76.70;;;;;;6249805;28;20079;-76
2023/05/26 12:49:09;;;;;;;13.03;6.23;;;23.20;76.90;;;;;;6251170;28;20060;-74
2023/05/26 12:52:13;;;;;;;9.43;5.53;;;23.30;76.40;;;;;;6249901;28;20049;-76
2023/05/26 12:55:15;;;;;;;12.07;5.75;;;23.50;77.00;;;;;;6249174;28;20487;-76
2023/05/26 12:58:20;;;;;;;9.80;5.55;;;23.60;76.10;;;;;;6248929;28;20477;-77
2023/05/26 13:01:22;;;;;;;12.00;5.70;;;23.80;75.30;;;;;;6249004;28;20532;-75
2023/05/26 13:04:24;;;;;;;10.93;5.63;;;23.80;74.30;;;;;;6248796;28;20053;-74
2023/05/26 13:07:26;;;;;;;10.80;6.05;;;23.90;73.30;;;;;;6248605;28;20045;-75
2023/05/26 13:10:28;;;;;;;12.68;6.70;;;24.20;72.60;;;;;;6248604;28;20495;-73
2023/05/26 13:13:32;;;;;;;12.13;6.13;;;24.50;72.60;;;;;;6247865;28;20056;-74
2023/05/26 13:16:33;;;;;;;10.07;5.72;;;24.80;74.80;;;;;;6247889;28;20061;-74
2023/05/26 13:19:36;;;;;;;10.98;5.50;;;24.90;72.60;;;;;;6248266;28;20048;-73
2023/05/26 13:22:40;;;;;;;10.17;5.70;;;25.00;70.10;;;;;;6230516;28;20100;-73
2023/05/26 13:25:42;;;;;;;10.32;5.47;;;25.10;70.70;;;;;;6248253;28;20089;-75
2023/05/26 13:28:45;;;;;;;11.82;5.63;;;25.10;68.80;;;;;;6248433;28;20049;-76
2023/05/26 13:31:47;;;;;;;8.38;5.50;;;25.20;70.00;;;;;;6248230;28;20041;-73
2023/05/26 13:34:48;;;;;;;8.95;5.20;;;25.50;69.80;;;;;;6247991;28;20411;-74
2023/05/26 13:37:52;;;;;;;8.13;4.90;;;25.60;69.30;;;;;;6248173;28;20049;-73
2023/05/26 13:40:55;;;;;;;10.80;5.93;;;25.60;68.60;;;;;;6248552;28;20057;-77
2023/05/26 13:43:58;;;;;;;7.80;4.82;;;26.00;67.70;;;;;;6248092;28;20103;-75
2023/05/26 13:47:00;;;;;;;8.93;5.32;;;26.10;66.80;;;;;;6248364;28;20480;-76
2023/05/26 13:50:03;;;;;;;8.82;5.22;;;26.10;66.00;;;;;;6248346;28;20053;-73
2023/05/26 13:53:06;;;;;;;10.80;5.47;;;26.40;65.10;;;;;;6248272;28;20045;-74
2023/05/26 13:56:08;;;;;;;9.60;4.60;;;26.60;66.40;;;;;;6248092;28;20049;-74
2023/05/26 13:59:11;;;;;;;8.55;4.63;;;27.00;63.30;;;;;;6247874;28;20510;-75
2023/05/26 14:02:13;;;;;;;8.18;4.63;;;27.00;62.80;;;;;;6248165;28;20057;-77
2023/05/26 14:05:15;;;;;;;10.70;4.90;;;27.00;62.20;;;;;;6247643;28;20406;-75
2023/05/26 14:08:17;;;;;;;6.85;4.72;;;26.70;62.00;;;;;;6247594;28;20049;-75
2023/05/26 14:11:19;;;;;;;8.35;4.90;;;26.70;64.00;;;;;;6248156;28;20045;-74
2023/05/26 14:14:22;;;;;;;8.63;4.80;;;26.80;63.60;;;;;;6248204;28;20052;-76
2023/05/26 14:17:25;;;;;;;8.18;4.70;;;27.10;63.30;;;;;;6253743;28;20049;-76
2023/05/26 14:20:27;;;;;;;;;;;26.80;64.40;;;;;;6255267;28;20049;-76
2023/05/26 14:23:29;;;;;;;10.80;5.45;;;26.60;64.10;;;;;;6253264;28;20019;-75
2023/05/26 14:26:31;;;;;;;8.68;4.95;;;26.30;62.80;;;;;;6253335;28;20064;-73
2023/05/26 14:29:34;;;;;;;10.23;5.40;;;26.30;65.20;;;;;;6252552;28;20495;-74
2023/05/26 14:32:36;;;;;;;12.52;5.32;;;26.10;64.80;;;;;;6252624;28;20042;-75
2023/05/26 14:35:38;;;;;;;12.10;5.47;;;26.10;65.80;;;;;;6252392;28;20049;-76
2023/05/26 14:38:45;;;;;;;9.95;5.75;;;25.90;66.40;;;;;;6252458;28;20053;-75
2023/05/26 14:41:47;;;;;;;11.60;4.93;;;26.60;65.10;;;;;;6252067;28;20418;-74
2023/05/26 14:44:50;;;;;;;8.55;4.95;;;27.20;64.60;;;;;;6252255;28;20049;-74
2023/05/26 14:47:53;;;;;;;9.68;5.40;;;27.40;65.90;;;;;;6252348;28;20071;-74
2023/05/26 14:50:55;;;;;;;8.65;4.90;;;27.50;62.90;;;;;;6252426;28;20064;-75
2023/05/26 14:53:57;;;;;;;9.65;4.80;;;27.70;61.30;;;;;;6256418;28;20049;-73
2023/05/26 14:57:00;;;;;;;7.15;4.70;;;27.10;61.30;;;;;;6253330;28;20045;-76
2023/05/26 15:00:08;;;;;;;8.85;5.45;;;26.90;61.70;;;;;;6252524;28;20049;-75
2023/05/26 15:03:10;;;;;;;8.23;4.80;;;26.70;61.70;;;;;;6252151;28;20052;-74
2023/05/26 15:06:15;;;;;;;9.40;4.22;;;26.80;62.20;;;;;;6252028;28;20049;-76
2023/05/26 15:09:17;;;;;;;9.77;4.85;;;27.10;61.50;;;;;;6251644;28;20046;-73
2023/05/26 15:12:18;;;;;;;9.02;4.35;;;27.60;60.50;;;;;;6251754;28;20057;-75
2023/05/26 15:15:22;;;;;;;9.40;4.57;;;27.80;61.20;;;;;;6251610;28;20168;-77
2023/05/26 15:18:24;;;;;;;7.47;4.30;;;27.80;60.00;;;;;;6251469;28;20053;-74
2023/05/26 15:21:25;;;;;;;12.00;4.90;;;28.50;57.90;;;;;;6251074;28;20049;-74
2023/05/26 15:24:27;;;;;;;10.73;4.50;;;28.70;58.90;;;;;;6251267;28;20045;-75
2023/05/26 15:27:29;;;;;;;8.27;4.38;;;28.30;58.10;;;;;;6251018;28;20498;-76
2023/05/26 15:30:32;;;;;;;10.13;4.60;;;28.90;58.40;;;;;;6250937;28;20064;-74
2023/05/26 15:33:34;;;;;;;8.48;4.20;;;29.40;57.20;;;;;;6253945;28;20053;-75
2023/05/26 15:36:36;;;;;;;6.87;4.13;;;29.60;55.90;;;;;;6252356;28;20053;-76
2023/05/26 15:39:38;;;;;;;8.33;4.30;;;30.10;56.80;;;;;;6235074;28;20056;-76
2023/05/26 15:42:40;;;;;;;7.40;4.10;;;29.30;56.60;;;;;;6253546;28;20049;-76
2023/05/26 15:45:43;;;;;;;8.10;4.13;;;30.00;54.80;;;;;;6252637;28;20050;-73
2023/05/26 15:48:45;;;;;;;7.20;4.03;;;29.80;54.80;;;;;;6250308;28;20308;-74